KTYS/TYS METAR and TAF weather

Enter ICAO airport designator
Station Type Date Time Source
KTYS METAR 2019/02/23 00:22 UTC NOAA

KTYS 230022Z 03007KT 3SM OVC005 11/09 A3020 RMK AO2 SFC VIS 8 RAE14 P0000 T01060094


Station Type Date Time Source
KTYS Decoded METAR 2019/02/23 00:22 UTC NOAA

MCGHEE TYSON AIRPORT, TN, United States (KTYS) 35-49N 083-59W 302M
Feb 22, 2019 - 07:22 PM EST / 2019.02.23 0022 UTC
Wind: from the NNE (030 degrees) at 8 MPH (7 KT):0
Visibility: 3 mile(s):0
Sky conditions: overcast
Precipitation last hour: A trace
Temperature: 51.1 F (10.6 C)
Dew Point: 48.9 F (9.4 C)
Relative Humidity: 92%
Pressure (altimeter): 30.2 in. Hg (1022 hPa)
ob: KTYS 230022Z 03007KT 3SM OVC005 11/09 A3020 RMK AO2 SFC VIS 8 RAE14 P0000 T01060094
cycle: 0

Station Type Date Time Source
KTYS TAF 2019/02/23 00:12 UTC NOAA

TAF
AMD KTYS 230011Z 2300/2324 03005KT 4SM -SHRA BKN006 OVC015
FM230300 03006KT 5SM BR SCT008 BKN015
FM230900 VRB04KT 3SM BR VCSH OVC010
FM231200 04005KT 3SM -SHRA SCT015 OVC030 WS020/17025KT
FM231600 08005KT 3SM BR OVC030 WS020/19030KT
FM232100 22008KT P6SM OVC045


Example: see airport list